createdAt,value
2022-08-02T00:00:16.252Z,0.00
2022-08-02T00:01:16.141Z,0.00
2022-08-02T00:02:16.154Z,0.00
2022-08-02T00:03:16.062Z,0.00
2022-08-02T00:04:16.183Z,0.00
2022-08-02T00:05:16.049Z,0.00
2022-08-02T00:06:16.088Z,0.00
2022-08-02T00:07:15.993Z,0.00
2022-08-02T00:08:16.060Z,0.00
2022-08-02T00:09:15.964Z,0.00
2022-08-02T00:10:16.063Z,0.00
2022-08-02T00:11:15.917Z,0.00
2022-08-02T00:12:15.973Z,0.00
2022-08-02T00:13:15.863Z,0.00
2022-08-02T00:14:15.969Z,0.00
2022-08-02T00:15:16.478Z,0.00
2022-08-02T00:16:16.703Z,0.00
2022-08-02T00:17:15.807Z,0.00
2022-08-02T00:18:15.883Z,0.00
2022-08-02T00:19:15.767Z,0.00
2022-08-02T00:20:15.886Z,0.00
2022-08-02T00:21:15.724Z,0.00
2022-08-02T00:22:15.795Z,0.00
2022-08-02T00:23:15.710Z,0.00
2022-08-02T00:24:30.161Z,0.00
2022-08-02T00:25:16.694Z,0.00
2022-08-02T00:26:15.770Z,0.00
2022-08-02T00:27:15.640Z,0.00
2022-08-02T00:28:15.760Z,0.00
2022-08-02T00:29:15.587Z,0.00
2022-08-02T00:30:15.697Z,0.00
2022-08-02T00:31:15.571Z,0.00
2022-08-02T00:32:15.675Z,0.00
2022-08-02T00:33:15.548Z,0.00
2022-08-02T00:34:28.432Z,0.00
2022-08-02T00:35:16.557Z,0.00
2022-08-02T00:36:15.556Z,0.00
2022-08-02T00:37:15.458Z,0.00
2022-08-02T00:38:15.518Z,0.00
2022-08-02T00:39:34.401Z,0.00
2022-08-02T00:40:16.489Z,0.00
2022-08-02T00:41:15.422Z,0.00
2022-08-02T00:42:15.452Z,0.00
2022-08-02T00:43:15.347Z,0.00
2022-08-02T00:44:15.404Z,0.00
2022-08-02T00:45:15.306Z,0.00
2022-08-02T00:46:15.449Z,0.00
2022-08-02T00:47:19.521Z,0.00
2022-08-02T00:48:15.326Z,0.00
2022-08-02T00:49:15.301Z,0.00
2022-08-02T00:50:15.306Z,0.00
2022-08-02T00:51:15.248Z,0.00
2022-08-02T00:52:15.261Z,0.00
2022-08-02T00:53:15.164Z,0.00
2022-08-02T00:54:16.105Z,0.00
2022-08-02T00:55:17.378Z,0.00
2022-08-02T00:56:15.222Z,0.00
2022-08-02T00:57:15.148Z,0.00
2022-08-02T00:58:15.157Z,0.00
2022-08-02T00:59:15.076Z,0.00
2022-08-02T01:00:15.124Z,0.00
2022-08-02T01:01:15.080Z,0.00
2022-08-02T01:02:15.542Z,0.00
2022-08-02T01:03:15.005Z,0.00
2022-08-02T01:04:15.094Z,0.00
2022-08-02T01:05:14.963Z,0.00
2022-08-02T01:06:15.034Z,0.00
2022-08-02T01:07:14.964Z,0.00
2022-08-02T01:08:15.015Z,0.00
2022-08-02T01:09:14.879Z,0.00
2022-08-02T01:10:15.002Z,0.00
2022-08-02T01:11:14.872Z,0.00
2022-08-02T01:12:15.354Z,0.00
2022-08-02T01:13:14.841Z,0.00
2022-08-02T01:14:14.882Z,0.00
2022-08-02T01:15:14.810Z,0.00
2022-08-02T01:16:14.847Z,0.00
2022-08-02T01:17:14.762Z,0.00
2022-08-02T01:18:14.854Z,0.00
2022-08-02T01:19:16.185Z,0.00
2022-08-02T01:20:14.764Z,0.00
2022-08-02T01:21:14.658Z,0.00
2022-08-02T01:22:14.771Z,0.00
2022-08-02T01:23:14.631Z,1.00
2022-08-02T01:24:14.764Z,0.00
2022-08-02T01:25:14.622Z,0.00
2022-08-02T01:26:14.679Z,0.00
2022-08-02T01:27:14.573Z,0.00
2022-08-02T01:28:14.629Z,0.00
2022-08-02T01:29:14.566Z,0.00
2022-08-02T01:30:14.591Z,0.00
2022-08-02T01:31:14.492Z,0.00
2022-08-02T01:32:14.712Z,0.00
2022-08-02T01:33:14.677Z,0.00
2022-08-02T01:34:14.548Z,0.00
2022-08-02T01:35:14.412Z,0.00
2022-08-02T01:36:14.503Z,0.00
2022-08-02T01:37:14.405Z,0.00
2022-08-02T01:38:15.128Z,0.00
2022-08-02T01:39:27.405Z,0.00
2022-08-02T01:40:15.459Z,0.00
2022-08-02T01:41:14.320Z,0.00
2022-08-02T01:42:14.665Z,0.00
2022-08-02T01:43:14.300Z,0.00
2022-08-02T01:44:15.113Z,0.00
2022-08-02T01:45:14.281Z,0.00
2022-08-02T01:46:14.314Z,0.00
2022-08-02T01:47:14.245Z,0.00
2022-08-02T01:48:14.272Z,1.00
2022-08-02T01:49:14.189Z,0.00
2022-08-02T01:50:14.311Z,0.00
2022-08-02T01:51:14.144Z,0.00
2022-08-02T01:52:14.329Z,0.00
2022-08-02T01:53:14.145Z,0.00
2022-08-02T01:54:14.164Z,0.00
2022-08-02T01:55:18.771Z,0.00
2022-08-02T01:56:15.129Z,0.00
2022-08-02T01:57:14.024Z,0.00
2022-08-02T01:58:14.175Z,0.00
2022-08-02T01:59:14.019Z,0.00
2022-08-02T02:00:14.057Z,0.00
2022-08-02T02:01:15.311Z,0.00
2022-08-02T02:02:14.433Z,0.00
2022-08-02T02:03:13.932Z,0.00
2022-08-02T02:04:13.990Z,0.00
2022-08-02T02:05:13.895Z,0.00
2022-08-02T02:06:13.988Z,0.00
2022-08-02T02:07:13.853Z,0.00
2022-08-02T02:08:13.929Z,0.00
2022-08-02T02:09:14.883Z,0.00
2022-08-02T02:10:13.895Z,0.00
2022-08-02T02:12:09.410Z,0.00
2022-08-02T02:12:15.029Z,0.00
2022-08-02T02:13:13.758Z,0.00
2022-08-02T02:14:13.834Z,0.00
2022-08-02T02:15:13.709Z,0.00
2022-08-02T02:16:13.834Z,0.00
2022-08-02T02:18:11.498Z,0.00
2022-08-02T02:18:14.662Z,0.00
2022-08-02T02:19:13.633Z,0.00
2022-08-02T02:20:14.693Z,0.00
2022-08-02T02:21:13.581Z,0.00
2022-08-02T02:22:13.882Z,0.00
2022-08-02T02:23:13.562Z,0.00
2022-08-02T02:24:13.630Z,0.00
2022-08-02T02:25:13.651Z,0.00
2022-08-02T02:26:13.585Z,0.00
2022-08-02T02:27:13.486Z,0.00
2022-08-02T02:28:13.601Z,0.00
2022-08-02T02:29:13.433Z,0.00
2022-08-02T02:30:13.514Z,0.00
2022-08-02T02:31:13.497Z,0.00
2022-08-02T02:32:13.869Z,0.00
2022-08-02T02:33:13.415Z,0.00
2022-08-02T02:34:13.500Z,0.00
2022-08-02T02:35:13.356Z,0.00
2022-08-02T02:36:13.424Z,0.00
2022-08-02T02:37:13.337Z,0.00
2022-08-02T02:38:13.379Z,0.00
2022-08-02T02:39:13.933Z,0.00
2022-08-02T02:40:13.353Z,0.00
2022-08-02T02:41:13.341Z,0.00
2022-08-02T02:42:13.716Z,0.00
2022-08-02T02:43:13.341Z,0.00
2022-08-02T02:44:13.306Z,0.00
2022-08-02T02:45:13.243Z,0.00
2022-08-02T02:46:13.256Z,0.00
2022-08-02T02:47:13.222Z,0.00
2022-08-02T02:48:13.204Z,0.00
2022-08-02T02:49:13.353Z,0.00
2022-08-02T02:50:13.141Z,0.00
2022-08-02T02:51:13.822Z,0.00
2022-08-02T02:52:13.641Z,0.00
2022-08-02T02:53:13.093Z,0.00
2022-08-02T02:54:32.224Z,0.00
2022-08-02T02:55:14.031Z,0.00
2022-08-02T02:56:13.051Z,0.00
2022-08-02T02:57:13.039Z,0.00
2022-08-02T02:58:13.013Z,0.00
2022-08-02T02:59:13.647Z,0.00
2022-08-02T03:00:13.008Z,0.00
2022-08-02T03:01:13.080Z,0.00
2022-08-02T03:02:13.362Z,0.00
2022-08-02T03:03:12.925Z,0.00
2022-08-02T03:04:12.905Z,0.00
2022-08-02T03:05:12.895Z,0.00
2022-08-02T03:06:15.204Z,0.00
2022-08-02T03:07:12.858Z,0.00
2022-08-02T03:08:12.852Z,0.00
2022-08-02T03:09:12.820Z,0.00
2022-08-02T03:10:12.876Z,1.00
2022-08-02T03:11:12.845Z,1.00
2022-08-02T03:12:12.957Z,0.00
2022-08-02T03:13:12.749Z,1.00
2022-08-02T03:14:12.720Z,0.00
2022-08-02T03:15:12.728Z,0.00
2022-08-02T03:16:12.730Z,0.00
2022-08-02T03:17:12.686Z,0.00
2022-08-02T03:18:12.672Z,0.00
2022-08-02T03:19:12.706Z,0.00
2022-08-02T03:20:12.626Z,1.00
2022-08-02T03:21:12.628Z,1.00
2022-08-02T03:22:12.904Z,0.00
2022-08-02T03:23:12.580Z,0.00
2022-08-02T03:24:12.554Z,1.00
2022-08-02T03:25:12.560Z,1.00
2022-08-02T03:26:12.548Z,1.00
2022-08-02T03:27:12.532Z,1.00
2022-08-02T03:28:12.570Z,2.00
2022-08-02T03:29:12.464Z,1.00
2022-08-02T03:30:12.448Z,2.00
2022-08-02T03:31:12.439Z,3.00
2022-08-02T03:32:12.692Z,5.00
2022-08-02T03:33:13.165Z,3.00
2022-08-02T03:34:12.377Z,5.00
2022-08-02T03:35:12.387Z,7.00
2022-08-02T03:36:12.347Z,7.00
2022-08-02T03:37:12.418Z,7.00
2022-08-02T03:38:12.300Z,9.00
2022-08-02T03:39:12.272Z,11.00
2022-08-02T03:40:12.253Z,10.00
2022-08-02T03:41:12.246Z,11.00
2022-08-02T03:42:15.501Z,12.00
2022-08-02T03:43:12.270Z,12.00
2022-08-02T03:44:12.208Z,14.00
2022-08-02T03:45:12.159Z,15.00
2022-08-02T03:46:12.169Z,16.00
2022-08-02T03:47:12.128Z,17.00
2022-08-02T03:48:30.579Z,20.00
2022-08-02T03:49:13.152Z,21.00
2022-08-02T03:50:12.086Z,23.00
2022-08-02T03:51:12.050Z,25.00
2022-08-02T03:52:12.454Z,30.00
2022-08-02T03:53:19.950Z,30.00
2022-08-02T03:54:13.018Z,32.00
2022-08-02T03:55:11.972Z,34.00
2022-08-02T03:56:11.970Z,35.00
2022-08-02T03:57:11.950Z,37.00
2022-08-02T03:58:11.922Z,39.00
2022-08-02T03:59:11.950Z,43.00
2022-08-02T04:00:11.891Z,46.00
2022-08-02T04:01:12.707Z,48.00
2022-08-02T04:02:12.308Z,50.00
2022-08-02T04:03:11.845Z,53.00
2022-08-02T04:04:12.896Z,58.00
2022-08-02T04:05:11.802Z,61.00
2022-08-02T04:06:11.793Z,61.00
2022-08-02T04:07:11.762Z,65.00
2022-08-02T04:08:36.152Z,69.00
2022-08-02T04:09:12.779Z,72.00
2022-08-02T04:10:11.722Z,75.00
2022-08-02T04:11:11.763Z,79.00
2022-08-02T04:12:11.993Z,84.00
2022-08-02T04:13:12.619Z,86.00
2022-08-02T04:14:11.683Z,91.00
2022-08-02T04:15:11.646Z,93.00
2022-08-02T04:16:11.593Z,96.00
2022-08-02T04:17:11.578Z,99.00
2022-08-02T04:18:11.585Z,103.00
2022-08-02T04:19:14.751Z,110.00
2022-08-02T04:20:11.615Z,114.00
2022-08-02T04:21:11.494Z,124.00
2022-08-02T04:22:11.683Z,128.00
2022-08-02T04:23:11.471Z,128.00
2022-08-02T04:24:11.449Z,127.00
2022-08-02T04:25:17.098Z,127.00
2022-08-02T04:26:12.419Z,130.00
2022-08-02T04:27:49.877Z,137.00
2022-08-02T04:28:17.010Z,144.00
2022-08-02T04:29:12.388Z,153.00
2022-08-02T04:30:11.382Z,159.00
2022-08-02T04:31:11.322Z,168.00
2022-08-02T04:32:11.531Z,177.00
2022-08-02T04:33:11.296Z,189.00
2022-08-02T04:34:14.962Z,198.00
2022-08-02T04:35:19.255Z,215.00
2022-08-02T04:36:12.291Z,229.00
2022-08-02T04:37:11.245Z,246.00
2022-08-02T04:38:11.255Z,258.00
2022-08-02T04:39:11.195Z,270.00
2022-08-02T04:40:11.157Z,290.00
2022-08-02T04:41:11.194Z,303.00
2022-08-02T04:42:11.393Z,318.00
2022-08-02T04:43:11.096Z,334.00
2022-08-02T04:44:11.098Z,355.00
2022-08-02T04:45:11.098Z,390.00
2022-08-02T04:46:12.086Z,396.00
2022-08-02T04:47:11.028Z,390.00
2022-08-02T04:48:11.025Z,406.00
2022-08-02T04:49:11.020Z,447.00
2022-08-02T04:50:10.989Z,474.00
2022-08-02T04:51:10.953Z,483.00
2022-08-02T04:52:11.148Z,497.00
2022-08-02T04:53:10.925Z,502.00
2022-08-02T04:54:10.958Z,485.00
2022-08-02T04:55:10.879Z,446.00
2022-08-02T04:56:10.844Z,438.00
2022-08-02T04:57:10.883Z,488.00
2022-08-02T04:58:38.386Z,454.00
2022-08-02T04:59:11.807Z,443.00
2022-08-02T05:00:10.811Z,470.00
2022-08-02T05:01:11.196Z,508.00
2022-08-02T05:02:10.987Z,488.00
2022-08-02T05:03:10.804Z,419.00
2022-08-02T05:04:10.726Z,410.00
2022-08-02T05:05:10.692Z,405.00
2022-08-02T05:06:19.472Z,413.00
2022-08-02T05:07:11.686Z,418.00
2022-08-02T05:08:10.644Z,435.00
2022-08-02T05:09:10.628Z,433.00
2022-08-02T05:10:10.623Z,439.00
2022-08-02T05:11:10.587Z,459.00
2022-08-02T05:12:10.876Z,462.00
2022-08-02T05:13:10.584Z,466.00
2022-08-02T05:14:10.541Z,470.00
2022-08-02T05:15:12.538Z,487.00
2022-08-02T05:16:10.487Z,492.00
2022-08-02T05:17:10.836Z,501.00
2022-08-02T05:18:10.484Z,484.00
2022-08-02T05:19:10.443Z,489.00
2022-08-02T05:20:10.422Z,499.00
2022-08-02T05:21:11.195Z,509.00
2022-08-02T05:22:10.667Z,473.00
2022-08-02T05:23:10.400Z,476.00
2022-08-02T05:24:10.377Z,494.00
2022-08-02T05:25:10.337Z,536.00
2022-08-02T05:26:10.317Z,560.00
2022-08-02T05:27:17.133Z,577.00
2022-08-02T05:28:11.924Z,601.00
2022-08-02T05:29:10.265Z,626.00
2022-08-02T05:30:10.322Z,647.00
2022-08-02T05:31:13.002Z,671.00
2022-08-02T05:32:11.531Z,690.00
2022-08-02T05:33:10.185Z,738.00
2022-08-02T05:34:12.158Z,787.00
2022-08-02T05:35:10.148Z,827.00
2022-08-02T05:36:10.149Z,849.00
2022-08-02T05:37:10.279Z,888.00
2022-08-02T05:38:10.345Z,889.00
2022-08-02T05:39:11.531Z,898.00
2022-08-02T05:40:13.017Z,923.00
2022-08-02T05:41:10.712Z,933.00
2022-08-02T05:42:10.353Z,960.00
2022-08-02T05:43:10.025Z,983.00
2022-08-02T05:44:10.018Z,1009.00
2022-08-02T05:45:09.998Z,1024.00
2022-08-02T05:46:09.994Z,1023.00
2022-08-02T05:47:09.952Z,1052.00
2022-08-02T05:48:09.922Z,1070.00
2022-08-02T05:49:09.973Z,1084.00
2022-08-02T05:50:09.918Z,1095.00
2022-08-02T05:51:09.869Z,1109.00
2022-08-02T05:52:10.163Z,1147.00
2022-08-02T05:53:09.841Z,1178.00
2022-08-02T05:54:09.830Z,1160.00
2022-08-02T05:55:10.136Z,1222.00
2022-08-02T05:56:09.800Z,1233.00
2022-08-02T05:57:09.746Z,1266.00
2022-08-02T05:58:09.727Z,1252.00
2022-08-02T05:59:09.707Z,1351.00
2022-08-02T06:00:09.741Z,1440.00
2022-08-02T06:01:09.667Z,1548.00
2022-08-02T06:02:10.040Z,1760.00
2022-08-02T06:03:09.636Z,2007.00
2022-08-02T06:04:09.737Z,1932.00
2022-08-02T06:05:09.645Z,1733.00
2022-08-02T06:06:09.639Z,1355.00
2022-08-02T06:07:09.602Z,1644.00
2022-08-02T06:08:09.572Z,1616.00
2022-08-02T06:09:09.564Z,1569.00
2022-08-02T06:10:09.546Z,1574.00
2022-08-02T06:11:09.548Z,1562.00
2022-08-02T06:12:09.483Z,1576.00
2022-08-02T06:13:09.488Z,1590.00
2022-08-02T06:14:09.440Z,2056.00
2022-08-02T06:15:09.432Z,3304.00
2022-08-02T06:16:14.091Z,5013.00
2022-08-02T06:17:09.386Z,5530.00
2022-08-02T06:18:09.378Z,3886.00
2022-08-02T06:19:09.442Z,2245.00
2022-08-02T06:20:09.334Z,1476.00
2022-08-02T06:22:32.098Z,1396.00
2022-08-02T06:22:37.543Z,1415.00
2022-08-02T06:23:13.658Z,1465.00
2022-08-02T06:24:09.269Z,1368.00
2022-08-02T06:25:11.805Z,1321.00
2022-08-02T06:26:10.159Z,1251.00
2022-08-02T06:27:09.258Z,1289.00
2022-08-02T06:28:11.195Z,1226.00
2022-08-02T06:29:09.206Z,1270.00
2022-08-02T06:30:09.502Z,1402.00
2022-08-02T06:31:09.196Z,2168.00
2022-08-02T06:32:09.492Z,3333.00
2022-08-02T06:33:09.129Z,3293.00
2022-08-02T06:34:09.188Z,2395.00
2022-08-02T06:35:09.070Z,2975.00
2022-08-02T06:36:09.039Z,3944.00
2022-08-02T06:37:09.724Z,3349.00
2022-08-02T06:38:09.078Z,2156.00
2022-08-02T06:39:08.989Z,1613.00
2022-08-02T06:40:09.044Z,1588.00
2022-08-02T06:41:09.115Z,1703.00
2022-08-02T06:42:09.157Z,1699.00
2022-08-02T06:43:08.940Z,1725.00
2022-08-02T06:44:42.070Z,1805.00
2022-08-02T06:45:09.810Z,1975.00
2022-08-02T06:46:37.749Z,6597.00
2022-08-02T06:47:13.040Z,18521.00
2022-08-02T06:48:08.868Z,25492.00
2022-08-02T06:49:08.950Z,23947.00
2022-08-02T06:50:08.829Z,23959.00
2022-08-02T06:51:08.778Z,21507.00
2022-08-02T06:52:08.993Z,19179.00
2022-08-02T06:53:08.776Z,19879.00
2022-08-02T06:54:08.739Z,21011.00
2022-08-02T06:55:08.717Z,16098.00
2022-08-02T06:56:09.221Z,7794.00
2022-08-02T06:57:08.694Z,3775.00
2022-08-02T06:58:08.713Z,2032.00
2022-08-02T06:59:08.702Z,1790.00
2022-08-02T07:00:08.602Z,1673.00
2022-08-02T07:01:08.652Z,1963.00
2022-08-02T07:02:08.727Z,1887.00
2022-08-02T07:03:08.572Z,1765.00
2022-08-02T07:04:08.601Z,1790.00
2022-08-02T07:05:08.572Z,1801.00
2022-08-02T07:06:08.533Z,1730.00
2022-08-02T07:07:08.503Z,1683.00
2022-08-02T07:08:08.486Z,1703.00
2022-08-02T07:09:20.383Z,1755.00
2022-08-02T07:10:09.444Z,1704.00
2022-08-02T07:11:08.402Z,1726.00
2022-08-02T07:12:08.849Z,1701.00
2022-08-02T07:13:08.402Z,1593.00
2022-08-02T07:14:08.595Z,1615.00
2022-08-02T07:15:08.367Z,1638.00
2022-08-02T07:16:08.322Z,1625.00
2022-08-02T07:17:08.299Z,1666.00
2022-08-02T07:18:08.390Z,1626.00
2022-08-02T07:19:09.275Z,1649.00
2022-08-02T07:20:08.310Z,1061.00
2022-08-02T07:21:08.690Z,1498.00
2022-08-02T07:22:08.202Z,1550.00
2022-08-02T07:23:08.241Z,1576.00
2022-08-02T07:24:08.168Z,1312.00
2022-08-02T07:25:08.185Z,1523.00
2022-08-02T07:26:08.133Z,1487.00
2022-08-02T07:27:11.779Z,1446.00
2022-08-02T07:28:09.740Z,1445.00
2022-08-02T07:29:09.112Z,1435.00
2022-08-02T07:30:08.070Z,1391.00
2022-08-02T07:31:08.100Z,1394.00
2022-08-02T07:32:08.086Z,1433.00
2022-08-02T07:33:08.015Z,1459.00
2022-08-02T07:34:09.063Z,1397.00
2022-08-02T07:35:07.989Z,1415.00
2022-08-02T07:36:08.851Z,1405.00
2022-08-02T07:37:07.946Z,1386.00
2022-08-02T07:38:07.953Z,1370.00
2022-08-02T07:39:07.894Z,1400.00
2022-08-02T07:40:12.570Z,1425.00
2022-08-02T07:41:08.901Z,1473.00
2022-08-02T07:42:07.837Z,1434.00
2022-08-02T07:43:07.848Z,1457.00
2022-08-02T07:44:07.818Z,1377.00
2022-08-02T07:45:07.806Z,1380.00
2022-08-02T07:46:07.833Z,1405.00
2022-08-02T07:47:07.870Z,1416.00
2022-08-02T07:48:07.784Z,1429.00
2022-08-02T07:49:08.103Z,1426.00
2022-08-02T07:50:07.784Z,1445.00
2022-08-02T07:51:07.710Z,1455.00
2022-08-02T07:52:07.708Z,1434.00
2022-08-02T07:53:07.651Z,1442.00
2022-08-02T07:54:07.631Z,1360.00
2022-08-02T07:55:07.653Z,1437.00
2022-08-02T07:56:07.613Z,1507.00
2022-08-02T07:57:07.658Z,1484.00
2022-08-02T07:58:13.316Z,1530.00
2022-08-02T07:59:08.567Z,1513.00
2022-08-02T08:00:07.556Z,1568.00
2022-08-02T08:01:07.600Z,1565.00
2022-08-02T08:02:07.584Z,1553.00
2022-08-02T08:03:07.494Z,1579.00
2022-08-02T08:04:07.489Z,1561.00
2022-08-02T08:05:07.435Z,1519.00
2022-08-02T08:06:07.450Z,1517.00
2022-08-02T08:07:07.441Z,1561.00
2022-08-02T08:08:07.454Z,1505.00
2022-08-02T08:09:07.375Z,1533.00
2022-08-02T08:10:07.372Z,1520.00
2022-08-02T08:11:07.349Z,1522.00
2022-08-02T08:12:07.318Z,1568.00
2022-08-02T08:13:07.361Z,1555.00
2022-08-02T08:14:10.270Z,1547.00
2022-08-02T08:15:08.262Z,1468.00
2022-08-02T08:16:07.256Z,1464.00
2022-08-02T08:17:07.303Z,1458.00
2022-08-02T08:18:07.248Z,1418.00
2022-08-02T08:19:07.205Z,1430.00
2022-08-02T08:20:07.165Z,1418.00
2022-08-02T08:21:07.175Z,1418.00
2022-08-02T08:22:07.142Z,1434.00
2022-08-02T08:23:07.155Z,1416.00
2022-08-02T08:24:07.133Z,1437.00
2022-08-02T08:25:07.116Z,1427.00
2022-08-02T08:26:07.056Z,1411.00
2022-08-02T08:27:07.019Z,1422.00
2022-08-02T08:28:07.073Z,1441.00
2022-08-02T08:29:07.012Z,1467.00
2022-08-02T08:30:06.995Z,1454.00
2022-08-02T08:31:06.990Z,1409.00
2022-08-02T08:32:06.953Z,1427.00
2022-08-02T08:33:07.048Z,1413.00
2022-08-02T08:34:06.919Z,1479.00
2022-08-02T08:35:06.906Z,1420.00
2022-08-02T08:36:07.785Z,1435.00
2022-08-02T08:37:06.834Z,1452.00
2022-08-02T08:38:07.857Z,1455.00
2022-08-02T08:39:06.841Z,1472.00
2022-08-02T08:40:06.802Z,1485.00
2022-08-02T08:41:06.670Z,1463.00
2022-08-02T08:42:06.816Z,1505.00
2022-08-02T08:43:06.720Z,1482.00
2022-08-02T08:44:06.749Z,1507.00
2022-08-02T08:45:06.729Z,1481.00
2022-08-02T08:46:06.694Z,1475.00
2022-08-02T08:47:06.689Z,1479.00
2022-08-02T08:48:06.661Z,1503.00
2022-08-02T08:49:06.783Z,1513.00
2022-08-02T08:50:06.679Z,1487.00
2022-08-02T08:51:06.640Z,1439.00
2022-08-02T08:52:06.559Z,1532.00
2022-08-02T08:53:06.558Z,1582.00
2022-08-02T08:54:06.552Z,1545.00
2022-08-02T08:55:07.328Z,1492.00
2022-08-02T08:56:06.485Z,1472.00
2022-08-02T08:57:06.473Z,1464.00
2022-08-02T08:58:06.513Z,1482.00
2022-08-02T08:59:07.274Z,1506.00
2022-08-02T09:00:06.538Z,1452.00
2022-08-02T09:01:06.462Z,1442.00
2022-08-02T09:02:17.897Z,1455.00
2022-08-02T09:03:07.408Z,1470.00
2022-08-02T09:04:06.358Z,1451.00
2022-08-02T09:05:06.373Z,1456.00
2022-08-02T09:06:06.325Z,1509.00
2022-08-02T09:07:06.348Z,1458.00
2022-08-02T09:08:06.292Z,1380.00
2022-08-02T09:09:06.291Z,1445.00
2022-08-02T09:10:06.278Z,1450.00
2022-08-02T09:11:06.233Z,1435.00
2022-08-02T09:12:06.215Z,1452.00
2022-08-02T09:13:37.764Z,1459.00
2022-08-02T09:14:07.087Z,1426.00
2022-08-02T09:15:06.236Z,1462.00
2022-08-02T09:16:12.934Z,1487.00
2022-08-02T09:17:07.138Z,1461.00
2022-08-02T09:18:06.082Z,1462.00
2022-08-02T09:19:07.767Z,1472.00
2022-08-02T09:20:06.063Z,1457.00
2022-08-02T09:21:06.419Z,1436.00
2022-08-02T09:22:06.010Z,1455.00
2022-08-02T09:23:05.995Z,1468.00
2022-08-02T09:24:05.988Z,1449.00
2022-08-02T09:25:06.046Z,1474.00
2022-08-02T09:26:07.718Z,1456.00
2022-08-02T09:27:05.918Z,1501.00
2022-08-02T09:28:05.925Z,1517.00
2022-08-02T09:29:05.889Z,1509.00
2022-08-02T09:30:12.116Z,1542.00
2022-08-02T09:31:06.907Z,1549.00
2022-08-02T09:32:05.845Z,1453.00
2022-08-02T09:33:05.834Z,1455.00
2022-08-02T09:34:05.848Z,1491.00
2022-08-02T09:35:05.784Z,1497.00
2022-08-02T09:36:08.158Z,1502.00
2022-08-02T09:37:05.780Z,1542.00
2022-08-02T09:38:05.731Z,1519.00
2022-08-02T09:39:05.713Z,1545.00
2022-08-02T09:40:05.692Z,1556.00
2022-08-02T09:41:05.706Z,1534.00
2022-08-02T09:42:05.691Z,1542.00
2022-08-02T09:43:05.694Z,1544.00
2022-08-02T09:44:06.688Z,2792.00
2022-08-02T09:45:05.602Z,2756.00
2022-08-02T09:46:05.500Z,2211.00
2022-08-02T09:47:05.614Z,1708.00
2022-08-02T09:48:05.531Z,3681.00
2022-08-02T09:49:05.597Z,2269.00
2022-08-02T09:50:05.535Z,1877.00
2022-08-02T09:51:05.475Z,1857.00
2022-08-02T09:52:05.528Z,1723.00
2022-08-02T09:53:05.441Z,1678.00
2022-08-02T09:54:08.828Z,1668.00
2022-08-02T09:55:05.427Z,1675.00
2022-08-02T09:56:05.388Z,1638.00
2022-08-02T09:57:06.424Z,1679.00
2022-08-02T09:58:05.350Z,1695.00
2022-08-02T09:59:05.372Z,1717.00
2022-08-02T10:00:05.354Z,1718.00
2022-08-02T10:01:05.359Z,1705.00
2022-08-02T10:02:05.300Z,1736.00
2022-08-02T10:03:05.335Z,1714.00
2022-08-02T10:04:05.226Z,1783.00
2022-08-02T10:05:05.225Z,1764.00
2022-08-02T10:06:05.231Z,3263.00
2022-08-02T10:07:05.203Z,5291.00
2022-08-02T10:08:05.196Z,13747.00
2022-08-02T10:09:05.134Z,6204.00
2022-08-02T10:10:05.163Z,1995.00
2022-08-02T10:11:05.137Z,3207.00
2022-08-02T10:12:05.086Z,5501.00
2022-08-02T10:13:05.115Z,3430.00
2022-08-02T10:14:05.124Z,14206.00
2022-08-02T10:15:05.049Z,2388.00
2022-08-02T10:16:05.023Z,1868.00
2022-08-02T10:17:05.052Z,1859.00
2022-08-02T10:18:22.557Z,1874.00
2022-08-02T10:19:05.933Z,1845.00
2022-08-02T10:20:05.206Z,1815.00
2022-08-02T10:21:04.957Z,1798.00
2022-08-02T10:22:04.911Z,1790.00
2022-08-02T10:23:04.811Z,2065.00
2022-08-02T10:24:04.921Z,2098.00
2022-08-02T10:25:04.849Z,1955.00
2022-08-02T10:26:04.889Z,1789.00
2022-08-02T10:27:04.830Z,3705.00
2022-08-02T10:28:05.911Z,2226.00
2022-08-02T10:29:04.849Z,1887.00
2022-08-02T10:30:04.771Z,1817.00
2022-08-02T10:31:04.938Z,1778.00
2022-08-02T10:32:04.727Z,1862.00
2022-08-02T10:33:04.758Z,1832.00
2022-08-02T10:34:05.753Z,1924.00
2022-08-02T10:35:21.725Z,1813.00
2022-08-02T10:36:07.511Z,1828.00
2022-08-02T10:37:04.629Z,1874.00
2022-08-02T10:38:04.611Z,1949.00
2022-08-02T10:39:04.597Z,2881.00
2022-08-02T10:40:04.615Z,3791.00
2022-08-02T10:41:04.564Z,4233.00
2022-08-02T10:42:04.569Z,4270.00
2022-08-02T10:43:04.502Z,5695.00
2022-08-02T10:44:04.435Z,5873.00
2022-08-02T10:45:04.561Z,3220.00
2022-08-02T10:46:04.479Z,2073.00
2022-08-02T10:47:04.432Z,2044.00
2022-08-02T10:48:04.447Z,2065.00
2022-08-02T10:49:18.569Z,2084.00
2022-08-02T10:50:05.564Z,2079.00
2022-08-02T10:51:04.423Z,2057.00
2022-08-02T10:52:04.374Z,2050.00
2022-08-02T10:53:04.331Z,2021.00
2022-08-02T10:54:04.345Z,2069.00
2022-08-02T10:55:04.355Z,2047.00
2022-08-02T10:56:05.371Z,2042.00
2022-08-02T10:57:04.289Z,2099.00
2022-08-02T10:58:04.245Z,2122.00
2022-08-02T10:59:04.243Z,2187.00
2022-08-02T11:00:04.231Z,2133.00
2022-08-02T11:01:04.262Z,2040.00
2022-08-02T11:02:04.171Z,2061.00
2022-08-02T11:03:04.164Z,2047.00
2022-08-02T11:04:08.319Z,2068.00
2022-08-02T11:05:05.153Z,2086.00
2022-08-02T11:06:04.145Z,2108.00
2022-08-02T11:07:04.126Z,2154.00
2022-08-02T11:08:04.078Z,2175.00
2022-08-02T11:09:04.438Z,2197.00
2022-08-02T11:10:04.023Z,2194.00
2022-08-02T11:11:04.059Z,2196.00
2022-08-02T11:12:03.984Z,2046.00
2022-08-02T11:13:03.992Z,2026.00
2022-08-02T11:14:03.976Z,2247.00
2022-08-02T11:15:03.944Z,2151.00
2022-08-02T11:16:07.949Z,2092.00
2022-08-02T11:17:04.962Z,2102.00
2022-08-02T11:18:03.928Z,2088.00
2022-08-02T11:19:03.938Z,2091.00
2022-08-02T11:20:03.828Z,2019.00
2022-08-02T11:21:03.843Z,2000.00
2022-08-02T11:22:03.896Z,1949.00
2022-08-02T11:23:03.825Z,1893.00
2022-08-02T11:24:03.773Z,1908.00
2022-08-02T11:25:03.761Z,1976.00
2022-08-02T11:26:11.319Z,1993.00
2022-08-02T11:27:04.804Z,2118.00
2022-08-02T11:28:03.739Z,2096.00
2022-08-02T11:29:03.696Z,2005.00
2022-08-02T11:30:03.702Z,1949.00
2022-08-02T11:31:03.673Z,1974.00
2022-08-02T11:32:03.706Z,2014.00
2022-08-02T11:33:03.673Z,2048.00
2022-08-02T11:34:06.552Z,2000.00
2022-08-02T11:35:04.705Z,2063.00
2022-08-02T11:36:03.578Z,2110.00
2022-08-02T11:37:03.546Z,2198.00
2022-08-02T11:38:03.554Z,2247.00
2022-08-02T11:39:03.576Z,2902.00
2022-08-02T11:40:04.295Z,2578.00
2022-08-02T11:41:06.125Z,2347.00
2022-08-02T11:42:04.464Z,2375.00
2022-08-02T11:43:03.472Z,2471.00
2022-08-02T11:44:03.440Z,2368.00
2022-08-02T11:45:03.477Z,2442.00
2022-08-02T11:46:03.393Z,2614.00
2022-08-02T11:47:03.390Z,2639.00
2022-08-02T11:48:03.302Z,2527.00
2022-08-02T11:49:03.356Z,2308.00
2022-08-02T11:50:04.338Z,2454.00
2022-08-02T11:51:03.290Z,2248.00
2022-08-02T11:52:03.338Z,2382.00
2022-08-02T11:53:03.268Z,2465.00
2022-08-02T11:54:03.325Z,2550.00
2022-08-02T11:55:03.229Z,3971.00
2022-08-02T11:56:03.095Z,4478.00
2022-08-02T11:57:03.199Z,10133.00
2022-08-02T11:58:05.433Z,8663.00
2022-08-02T11:59:03.203Z,7328.00
2022-08-02T12:00:03.161Z,6330.00
2022-08-02T12:01:03.106Z,5745.00
2022-08-02T12:02:03.103Z,3614.00
2022-08-02T12:03:03.169Z,2966.00
2022-08-02T12:04:03.122Z,2535.00
2022-08-02T12:05:03.069Z,2535.00
2022-08-02T12:06:06.500Z,2455.00
2022-08-02T12:07:04.003Z,2447.00
2022-08-02T12:08:03.018Z,2418.00
2022-08-02T12:09:02.998Z,2689.00
2022-08-02T12:10:02.995Z,2670.00
2022-08-02T12:11:02.961Z,2862.00
2022-08-02T12:12:02.989Z,2852.00
2022-08-02T12:13:02.896Z,3893.00
2022-08-02T12:14:02.861Z,3951.00
2022-08-02T12:15:02.784Z,3090.00
2022-08-02T12:16:07.126Z,3026.00
2022-08-02T12:17:03.816Z,3635.00
2022-08-02T12:18:02.831Z,4082.00
2022-08-02T12:19:02.800Z,4281.00
2022-08-02T12:20:02.776Z,4082.00
2022-08-02T12:21:02.807Z,3746.00
2022-08-02T12:22:02.727Z,3400.00
2022-08-02T12:23:02.738Z,3373.00
2022-08-02T12:24:02.689Z,2789.00
2022-08-02T12:25:02.698Z,2646.00
2022-08-02T12:26:02.712Z,2794.00
2022-08-02T12:27:03.290Z,2691.00
2022-08-02T12:28:02.657Z,3151.00
2022-08-02T12:29:02.617Z,2999.00
2022-08-02T12:30:02.593Z,2884.00